sensor_id;sensor_type;location;lat;lon;timestamp;P1;durP1;ratioP1;P2;durP2;ratioP2
16669;SDS011;8448;52.034;5.158;2023-05-19T00:01:45;9.00;;;4.60;;
16669;SDS011;8448;52.034;5.158;2023-05-19T00:04:13;11.47;;;4.57;;
16669;SDS011;8448;52.034;5.158;2023-05-19T00:06:41;9.37;;;4.50;;
16669;SDS011;8448;52.034;5.158;2023-05-19T00:09:10;9.20;;;4.67;;
16669;SDS011;8448;52.034;5.158;2023-05-19T00:11:38;7.47;;;4.80;;
16669;SDS011;8448;52.034;5.158;2023-05-19T00:14:08;7.17;;;4.47;;
16669;SDS011;8448;52.034;5.158;2023-05-19T00:16:36;9.77;;;4.43;;
16669;SDS011;8448;52.034;5.158;2023-05-19T00:19:04;12.63;;;4.97;;
16669;SDS011;8448;52.034;5.158;2023-05-19T00:21:34;8.10;;;4.50;;
16669;SDS011;8448;52.034;5.158;2023-05-19T00:24:02;11.07;;;4.57;;
16669;SDS011;8448;52.034;5.158;2023-05-19T00:26:30;9.40;;;4.47;;
16669;SDS011;8448;52.034;5.158;2023-05-19T00:29:02;8.90;;;4.50;;
16669;SDS011;8448;52.034;5.158;2023-05-19T00:31:31;8.87;;;4.20;;
16669;SDS011;8448;52.034;5.158;2023-05-19T00:33:59;9.83;;;4.53;;
16669;SDS011;8448;52.034;5.158;2023-05-19T00:36:27;8.87;;;4.60;;
16669;SDS011;8448;52.034;5.158;2023-05-19T00:38:55;9.35;;;5.15;;
16669;SDS011;8448;52.034;5.158;2023-05-19T00:41:22;10.43;;;4.60;;
16669;SDS011;8448;52.034;5.158;2023-05-19T00:43:50;9.80;;;4.83;;
16669;SDS011;8448;52.034;5.158;2023-05-19T00:46:17;9.03;;;4.53;;
16669;SDS011;8448;52.034;5.158;2023-05-19T00:48:47;11.83;;;5.10;;
16669;SDS011;8448;52.034;5.158;2023-05-19T00:51:15;11.10;;;4.80;;
16669;SDS011;8448;52.034;5.158;2023-05-19T00:53:42;10.37;;;4.93;;
16669;SDS011;8448;52.034;5.158;2023-05-19T00:56:15;14.00;;;5.00;;
16669;SDS011;8448;52.034;5.158;2023-05-19T00:58:42;10.50;;;4.90;;
16669;SDS011;8448;52.034;5.158;2023-05-19T01:01:10;10.33;;;4.80;;
16669;SDS011;8448;52.034;5.158;2023-05-19T01:03:38;8.40;;;4.30;;
16669;SDS011;8448;52.034;5.158;2023-05-19T01:06:08;7.63;;;5.00;;
16669;SDS011;8448;52.034;5.158;2023-05-19T01:08:36;9.53;;;4.60;;
16669;SDS011;8448;52.034;5.158;2023-05-19T01:11:04;7.87;;;4.53;;
16669;SDS011;8448;52.034;5.158;2023-05-19T01:13:32;12.67;;;5.17;;
16669;SDS011;8448;52.034;5.158;2023-05-19T01:16:02;10.60;;;4.93;;
16669;SDS011;8448;52.034;5.158;2023-05-19T01:18:37;9.32;;;4.90;;
16669;SDS011;8448;52.034;5.158;2023-05-19T01:27:06;8.20;;;4.53;;
16669;SDS011;8448;52.034;5.158;2023-05-19T01:32:38;9.95;;;5.57;;
16669;SDS011;8448;52.034;5.158;2023-05-19T01:35:07;8.07;;;4.60;;
16669;SDS011;8448;52.034;5.158;2023-05-19T01:37:35;8.33;;;4.93;;
16669;SDS011;8448;52.034;5.158;2023-05-19T01:40:03;10.47;;;5.20;;
16669;SDS011;8448;52.034;5.158;2023-05-19T01:42:32;11.87;;;5.30;;
16669;SDS011;8448;52.034;5.158;2023-05-19T01:45:03;7.57;;;4.90;;
16669;SDS011;8448;52.034;5.158;2023-05-19T01:47:37;8.50;;;5.07;;
16669;SDS011;8448;52.034;5.158;2023-05-19T01:50:07;10.20;;;6.13;;
16669;SDS011;8448;52.034;5.158;2023-05-19T01:52:35;9.37;;;5.37;;
16669;SDS011;8448;52.034;5.158;2023-05-19T01:55:02;8.73;;;5.27;;
16669;SDS011;8448;52.034;5.158;2023-05-19T01:57:32;9.53;;;5.17;;
16669;SDS011;8448;52.034;5.158;2023-05-19T02:00:08;10.10;;;5.50;;
16669;SDS011;8448;52.034;5.158;2023-05-19T02:02:46;11.43;;;5.70;;
16669;SDS011;8448;52.034;5.158;2023-05-19T02:05:21;9.80;;;5.27;;
16669;SDS011;8448;52.034;5.158;2023-05-19T02:07:57;10.50;;;5.30;;
16669;SDS011;8448;52.034;5.158;2023-05-19T02:10:30;10.20;;;4.63;;
16669;SDS011;8448;52.034;5.158;2023-05-19T02:12:59;12.80;;;5.85;;
16669;SDS011;8448;52.034;5.158;2023-05-19T02:15:33;10.77;;;5.30;;
16669;SDS011;8448;52.034;5.158;2023-05-19T02:18:04;11.20;;;5.83;;
16669;SDS011;8448;52.034;5.158;2023-05-19T02:20:33;13.43;;;5.43;;
16669;SDS011;8448;52.034;5.158;2023-05-19T02:23:00;10.03;;;5.80;;
16669;SDS011;8448;52.034;5.158;2023-05-19T02:25:27;8.93;;;5.77;;
16669;SDS011;8448;52.034;5.158;2023-05-19T02:27:56;8.90;;;5.57;;
16669;SDS011;8448;52.034;5.158;2023-05-19T02:30:23;9.20;;;5.10;;
16669;SDS011;8448;52.034;5.158;2023-05-19T02:32:51;12.60;;;5.30;;
16669;SDS011;8448;52.034;5.158;2023-05-19T02:35:20;11.53;;;5.67;;
16669;SDS011;8448;52.034;5.158;2023-05-19T02:37:47;12.07;;;5.77;;
16669;SDS011;8448;52.034;5.158;2023-05-19T02:40:16;12.47;;;5.50;;
16669;SDS011;8448;52.034;5.158;2023-05-19T02:42:43;11.27;;;5.60;;
16669;SDS011;8448;52.034;5.158;2023-05-19T02:45:11;13.33;;;5.67;;
16669;SDS011;8448;52.034;5.158;2023-05-19T02:47:39;10.93;;;5.87;;
16669;SDS011;8448;52.034;5.158;2023-05-19T02:50:07;10.40;;;5.77;;
16669;SDS011;8448;52.034;5.158;2023-05-19T02:52:36;11.88;;;6.60;;
16669;SDS011;8448;52.034;5.158;2023-05-19T02:55:03;9.13;;;6.07;;
16669;SDS011;8448;52.034;5.158;2023-05-19T02:57:33;11.63;;;5.90;;
16669;SDS011;8448;52.034;5.158;2023-05-19T03:00:01;12.90;;;5.70;;
16669;SDS011;8448;52.034;5.158;2023-05-19T03:02:29;12.47;;;5.97;;
16669;SDS011;8448;52.034;5.158;2023-05-19T03:04:58;14.03;;;5.70;;
16669;SDS011;8448;52.034;5.158;2023-05-19T03:07:25;9.77;;;5.50;;
16669;SDS011;8448;52.034;5.158;2023-05-19T03:09:54;11.60;;;5.93;;
16669;SDS011;8448;52.034;5.158;2023-05-19T03:12:21;14.83;;;6.23;;
16669;SDS011;8448;52.034;5.158;2023-05-19T03:14:49;13.50;;;6.30;;
16669;SDS011;8448;52.034;5.158;2023-05-19T03:17:16;12.30;;;6.23;;
16669;SDS011;8448;52.034;5.158;2023-05-19T03:19:44;12.00;;;6.03;;
16669;SDS011;8448;52.034;5.158;2023-05-19T03:22:11;13.17;;;6.30;;
16669;SDS011;8448;52.034;5.158;2023-05-19T03:24:38;12.03;;;6.43;;
16669;SDS011;8448;52.034;5.158;2023-05-19T03:27:07;13.07;;;6.10;;
16669;SDS011;8448;52.034;5.158;2023-05-19T03:29:35;11.20;;;6.67;;
16669;SDS011;8448;52.034;5.158;2023-05-19T03:32:03;13.10;;;6.40;;
16669;SDS011;8448;52.034;5.158;2023-05-19T03:34:30;12.60;;;6.50;;
16669;SDS011;8448;52.034;5.158;2023-05-19T03:36:57;14.03;;;6.60;;
16669;SDS011;8448;52.034;5.158;2023-05-19T03:39:25;12.33;;;6.47;;
16669;SDS011;8448;52.034;5.158;2023-05-19T03:41:52;12.03;;;6.77;;
16669;SDS011;8448;52.034;5.158;2023-05-19T03:44:21;11.70;;;6.57;;
16669;SDS011;8448;52.034;5.158;2023-05-19T03:46:48;14.87;;;6.50;;
16669;SDS011;8448;52.034;5.158;2023-05-19T03:49:39;12.77;;;6.10;;
16669;SDS011;8448;52.034;5.158;2023-05-19T03:52:26;13.00;;;6.40;;
16669;SDS011;8448;52.034;5.158;2023-05-19T03:55:23;14.10;;;6.60;;
16669;SDS011;8448;52.034;5.158;2023-05-19T03:57:50;12.73;;;6.33;;
16669;SDS011;8448;52.034;5.158;2023-05-19T04:00:19;11.17;;;6.60;;
16669;SDS011;8448;52.034;5.158;2023-05-19T04:02:49;13.50;;;6.90;;
16669;SDS011;8448;52.034;5.158;2023-05-19T04:05:16;13.63;;;6.70;;
16669;SDS011;8448;52.034;5.158;2023-05-19T04:07:44;16.00;;;7.20;;
16669;SDS011;8448;52.034;5.158;2023-05-19T04:10:11;12.40;;;6.63;;
16669;SDS011;8448;52.034;5.158;2023-05-19T04:12:39;13.00;;;6.70;;
16669;SDS011;8448;52.034;5.158;2023-05-19T04:15:07;14.20;;;6.87;;
16669;SDS011;8448;52.034;5.158;2023-05-19T04:17:37;15.77;;;7.87;;
16669;SDS011;8448;52.034;5.158;2023-05-19T04:20:05;17.17;;;8.63;;
16669;SDS011;8448;52.034;5.158;2023-05-19T04:22:34;20.97;;;10.23;;
16669;SDS011;8448;52.034;5.158;2023-05-19T04:25:01;24.53;;;10.90;;
16669;SDS011;8448;52.034;5.158;2023-05-19T04:27:29;20.50;;;11.80;;
16669;SDS011;8448;52.034;5.158;2023-05-19T04:30:00;25.40;;;11.60;;
16669;SDS011;8448;52.034;5.158;2023-05-19T04:32:29;17.60;;;9.80;;
16669;SDS011;8448;52.034;5.158;2023-05-19T04:34:58;19.23;;;8.97;;
16669;SDS011;8448;52.034;5.158;2023-05-19T04:37:27;16.33;;;8.37;;
16669;SDS011;8448;52.034;5.158;2023-05-19T04:39:55;12.37;;;7.20;;
16669;SDS011;8448;52.034;5.158;2023-05-19T04:42:24;15.77;;;7.90;;
16669;SDS011;8448;52.034;5.158;2023-05-19T04:44:55;14.13;;;6.93;;
16669;SDS011;8448;52.034;5.158;2023-05-19T04:47:24;14.77;;;7.40;;
16669;SDS011;8448;52.034;5.158;2023-05-19T04:49:52;13.97;;;7.67;;
16669;SDS011;8448;52.034;5.158;2023-05-19T04:52:21;14.40;;;8.07;;
16669;SDS011;8448;52.034;5.158;2023-05-19T04:54:49;14.13;;;7.47;;
16669;SDS011;8448;52.034;5.158;2023-05-19T04:57:17;13.67;;;7.17;;
16669;SDS011;8448;52.034;5.158;2023-05-19T04:59:44;13.17;;;7.27;;
16669;SDS011;8448;52.034;5.158;2023-05-19T05:02:12;15.10;;;6.83;;
16669;SDS011;8448;52.034;5.158;2023-05-19T05:04:39;14.10;;;7.87;;
16669;SDS011;8448;52.034;5.158;2023-05-19T05:07:08;15.10;;;7.13;;
16669;SDS011;8448;52.034;5.158;2023-05-19T05:09:38;13.57;;;6.83;;
16669;SDS011;8448;52.034;5.158;2023-05-19T05:12:06;13.17;;;7.13;;
16669;SDS011;8448;52.034;5.158;2023-05-19T05:14:37;15.73;;;7.70;;
16669;SDS011;8448;52.034;5.158;2023-05-19T05:17:05;15.03;;;7.30;;
16669;SDS011;8448;52.034;5.158;2023-05-19T05:19:34;11.80;;;7.27;;
16669;SDS011;8448;52.034;5.158;2023-05-19T05:22:01;12.80;;;7.93;;
16669;SDS011;8448;52.034;5.158;2023-05-19T05:24:31;11.93;;;7.50;;
16669;SDS011;8448;52.034;5.158;2023-05-19T05:27:03;14.83;;;7.80;;
16669;SDS011;8448;52.034;5.158;2023-05-19T05:29:32;12.43;;;6.97;;
16669;SDS011;8448;52.034;5.158;2023-05-19T05:32:02;16.13;;;7.90;;
16669;SDS011;8448;52.034;5.158;2023-05-19T05:34:30;14.00;;;7.63;;
16669;SDS011;8448;52.034;5.158;2023-05-19T05:36:58;13.87;;;7.43;;
16669;SDS011;8448;52.034;5.158;2023-05-19T05:39:25;12.80;;;7.70;;
16669;SDS011;8448;52.034;5.158;2023-05-19T05:41:53;18.77;;;7.53;;
16669;SDS011;8448;52.034;5.158;2023-05-19T05:44:22;14.10;;;7.10;;
16669;SDS011;8448;52.034;5.158;2023-05-19T05:46:50;13.50;;;7.53;;
16669;SDS011;8448;52.034;5.158;2023-05-19T05:49:17;18.07;;;8.27;;
16669;SDS011;8448;52.034;5.158;2023-05-19T05:51:46;13.00;;;7.67;;
16669;SDS011;8448;52.034;5.158;2023-05-19T05:54:13;13.80;;;8.23;;
16669;SDS011;8448;52.034;5.158;2023-05-19T05:56:44;15.00;;;8.30;;
16669;SDS011;8448;52.034;5.158;2023-05-19T05:59:13;13.60;;;7.70;;
16669;SDS011;8448;52.034;5.158;2023-05-19T06:01:41;13.83;;;7.90;;
16669;SDS011;8448;52.034;5.158;2023-05-19T06:04:09;16.30;;;7.47;;
16669;SDS011;8448;52.034;5.158;2023-05-19T06:06:37;13.43;;;7.40;;
16669;SDS011;8448;52.034;5.158;2023-05-19T06:09:04;12.63;;;8.10;;
16669;SDS011;8448;52.034;5.158;2023-05-19T06:11:32;14.00;;;7.43;;
16669;SDS011;8448;52.034;5.158;2023-05-19T06:13:59;14.40;;;7.87;;
16669;SDS011;8448;52.034;5.158;2023-05-19T06:16:54;11.67;;;6.90;;
16669;SDS011;8448;52.034;5.158;2023-05-19T06:19:21;15.03;;;7.40;;
16669;SDS011;8448;52.034;5.158;2023-05-19T06:21:50;12.97;;;7.47;;
16669;SDS011;8448;52.034;5.158;2023-05-19T06:24:18;13.00;;;7.20;;
16669;SDS011;8448;52.034;5.158;2023-05-19T06:26:46;14.97;;;7.20;;
16669;SDS011;8448;52.034;5.158;2023-05-19T06:29:15;13.57;;;7.50;;
16669;SDS011;8448;52.034;5.158;2023-05-19T06:31:42;16.63;;;7.17;;
16669;SDS011;8448;52.034;5.158;2023-05-19T06:34:14;13.43;;;7.47;;
16669;SDS011;8448;52.034;5.158;2023-05-19T06:36:43;14.40;;;7.00;;
16669;SDS011;8448;52.034;5.158;2023-05-19T06:39:11;15.00;;;6.90;;
16669;SDS011;8448;52.034;5.158;2023-05-19T06:41:39;10.87;;;6.27;;
16669;SDS011;8448;52.034;5.158;2023-05-19T06:44:07;11.87;;;6.33;;
16669;SDS011;8448;52.034;5.158;2023-05-19T06:46:34;12.40;;;6.70;;
16669;SDS011;8448;52.034;5.158;2023-05-19T06:49:02;11.47;;;6.53;;
16669;SDS011;8448;52.034;5.158;2023-05-19T06:51:36;10.40;;;5.93;;
16669;SDS011;8448;52.034;5.158;2023-05-19T06:54:04;12.87;;;6.60;;
16669;SDS011;8448;52.034;5.158;2023-05-19T06:56:31;11.60;;;5.87;;
16669;SDS011;8448;52.034;5.158;2023-05-19T06:58:58;10.80;;;6.13;;
16669;SDS011;8448;52.034;5.158;2023-05-19T07:01:32;11.03;;;5.87;;
16669;SDS011;8448;52.034;5.158;2023-05-19T07:04:00;10.53;;;5.53;;
16669;SDS011;8448;52.034;5.158;2023-05-19T07:06:28;10.07;;;5.80;;
16669;SDS011;8448;52.034;5.158;2023-05-19T07:08:57;12.47;;;5.63;;
16669;SDS011;8448;52.034;5.158;2023-05-19T07:11:24;8.30;;;5.30;;
16669;SDS011;8448;52.034;5.158;2023-05-19T07:13:52;11.53;;;5.47;;
16669;SDS011;8448;52.034;5.158;2023-05-19T07:16:25;9.67;;;5.60;;
16669;SDS011;8448;52.034;5.158;2023-05-19T07:18:53;11.13;;;5.80;;
16669;SDS011;8448;52.034;5.158;2023-05-19T07:21:20;10.67;;;5.30;;
16669;SDS011;8448;52.034;5.158;2023-05-19T07:23:49;10.13;;;5.68;;
16669;SDS011;8448;52.034;5.158;2023-05-19T07:26:17;9.27;;;5.53;;
16669;SDS011;8448;52.034;5.158;2023-05-19T07:28:45;10.00;;;5.20;;
16669;SDS011;8448;52.034;5.158;2023-05-19T07:31:12;9.50;;;4.75;;
16669;SDS011;8448;52.034;5.158;2023-05-19T07:33:39;7.80;;;4.88;;
16669;SDS011;8448;52.034;5.158;2023-05-19T07:36:07;11.80;;;4.75;;
16669;SDS011;8448;52.034;5.158;2023-05-19T07:38:34;8.82;;;4.15;;
16669;SDS011;8448;52.034;5.158;2023-05-19T07:41:02;13.45;;;4.03;;
16669;SDS011;8448;52.034;5.158;2023-05-19T07:43:31;9.35;;;4.18;;
16669;SDS011;8448;52.034;5.158;2023-05-19T07:45:58;5.95;;;3.80;;
16669;SDS011;8448;52.034;5.158;2023-05-19T07:48:25;9.60;;;4.07;;
16669;SDS011;8448;52.034;5.158;2023-05-19T07:50:53;6.88;;;3.53;;
16669;SDS011;8448;52.034;5.158;2023-05-19T07:53:21;7.88;;;3.40;;
16669;SDS011;8448;52.034;5.158;2023-05-19T07:55:48;9.65;;;3.90;;
16669;SDS011;8448;52.034;5.158;2023-05-19T07:58:15;7.03;;;3.35;;
16669;SDS011;8448;52.034;5.158;2023-05-19T08:00:45;7.38;;;3.17;;
16669;SDS011;8448;52.034;5.158;2023-05-19T08:03:12;8.52;;;3.33;;
16669;SDS011;8448;52.034;5.158;2023-05-19T08:05:41;7.18;;;3.08;;
16669;SDS011;8448;52.034;5.158;2023-05-19T08:08:09;7.47;;;3.17;;
16669;SDS011;8448;52.034;5.158;2023-05-19T08:10:36;5.97;;;2.90;;
16669;SDS011;8448;52.034;5.158;2023-05-19T08:13:04;6.75;;;3.00;;
16669;SDS011;8448;52.034;5.158;2023-05-19T08:15:31;8.48;;;2.80;;
16669;SDS011;8448;52.034;5.158;2023-05-19T08:18:00;6.43;;;2.67;;
16669;SDS011;8448;52.034;5.158;2023-05-19T08:20:29;6.63;;;2.80;;
16669;SDS011;8448;52.034;5.158;2023-05-19T08:22:56;5.30;;;2.88;;
16669;SDS011;8448;52.034;5.158;2023-05-19T08:25:23;5.93;;;2.80;;
16669;SDS011;8448;52.034;5.158;2023-05-19T08:27:51;6.10;;;2.72;;
16669;SDS011;8448;52.034;5.158;2023-05-19T08:30:18;6.40;;;2.88;;
16669;SDS011;8448;52.034;5.158;2023-05-19T08:32:46;7.03;;;3.00;;
16669;SDS011;8448;52.034;5.158;2023-05-19T08:35:14;6.50;;;3.00;;
16669;SDS011;8448;52.034;5.158;2023-05-19T08:37:42;6.70;;;2.70;;
16669;SDS011;8448;52.034;5.158;2023-05-19T08:40:10;6.05;;;2.67;;
16669;SDS011;8448;52.034;5.158;2023-05-19T08:42:42;6.85;;;2.80;;
16669;SDS011;8448;52.034;5.158;2023-05-19T08:45:09;6.60;;;3.10;;
16669;SDS011;8448;52.034;5.158;2023-05-19T08:47:37;6.65;;;3.10;;
16669;SDS011;8448;52.034;5.158;2023-05-19T08:50:07;6.47;;;2.90;;
16669;SDS011;8448;52.034;5.158;2023-05-19T08:52:39;5.13;;;2.67;;
16669;SDS011;8448;52.034;5.158;2023-05-19T08:55:12;7.38;;;2.97;;
16669;SDS011;8448;52.034;5.158;2023-05-19T08:57:46;7.18;;;3.30;;
16669;SDS011;8448;52.034;5.158;2023-05-19T09:00:14;7.38;;;3.42;;
16669;SDS011;8448;52.034;5.158;2023-05-19T09:02:42;6.38;;;3.03;;
16669;SDS011;8448;52.034;5.158;2023-05-19T09:05:10;4.60;;;2.45;;
16669;SDS011;8448;52.034;5.158;2023-05-19T09:07:38;6.82;;;2.92;;
16669;SDS011;8448;52.034;5.158;2023-05-19T09:10:07;6.50;;;3.05;;
16669;SDS011;8448;52.034;5.158;2023-05-19T09:12:38;6.03;;;3.10;;
16669;SDS011;8448;52.034;5.158;2023-05-19T09:15:06;7.00;;;3.30;;
16669;SDS011;8448;52.034;5.158;2023-05-19T09:17:35;7.25;;;3.03;;
16669;SDS011;8448;52.034;5.158;2023-05-19T09:20:04;6.53;;;3.17;;
16669;SDS011;8448;52.034;5.158;2023-05-19T09:22:40;8.25;;;3.13;;
16669;SDS011;8448;52.034;5.158;2023-05-19T09:25:18;6.22;;;3.10;;
16669;SDS011;8448;52.034;5.158;2023-05-19T09:27:47;6.95;;;3.25;;
16669;SDS011;8448;52.034;5.158;2023-05-19T09:30:15;6.82;;;2.90;;
16669;SDS011;8448;52.034;5.158;2023-05-19T09:32:43;5.40;;;2.08;;
16669;SDS011;8448;52.034;5.158;2023-05-19T09:35:11;5.47;;;2.35;;
16669;SDS011;8448;52.034;5.158;2023-05-19T09:37:42;5.60;;;2.35;;
16669;SDS011;8448;52.034;5.158;2023-05-19T09:40:12;5.57;;;2.33;;
16669;SDS011;8448;52.034;5.158;2023-05-19T09:42:40;5.43;;;2.28;;
16669;SDS011;8448;52.034;5.158;2023-05-19T09:45:09;4.97;;;2.25;;
16669;SDS011;8448;52.034;5.158;2023-05-19T09:47:36;5.95;;;2.03;;
16669;SDS011;8448;52.034;5.158;2023-05-19T09:50:05;5.15;;;2.40;;
16669;SDS011;8448;52.034;5.158;2023-05-19T09:52:34;7.53;;;2.42;;
16669;SDS011;8448;52.034;5.158;2023-05-19T09:55:04;5.30;;;2.53;;
16669;SDS011;8448;52.034;5.158;2023-05-19T09:57:34;4.90;;;2.10;;
16669;SDS011;8448;52.034;5.158;2023-05-19T10:00:05;6.10;;;2.10;;
16669;SDS011;8448;52.034;5.158;2023-05-19T10:02:39;8.75;;;2.40;;
16669;SDS011;8448;52.034;5.158;2023-05-19T10:05:09;6.70;;;2.08;;
16669;SDS011;8448;52.034;5.158;2023-05-19T10:07:40;6.00;;;2.38;;
16669;SDS011;8448;52.034;5.158;2023-05-19T10:10:11;4.03;;;2.05;;
16669;SDS011;8448;52.034;5.158;2023-05-19T10:12:40;5.68;;;2.33;;
16669;SDS011;8448;52.034;5.158;2023-05-19T10:15:08;5.63;;;2.20;;
16669;SDS011;8448;52.034;5.158;2023-05-19T10:17:36;5.63;;;2.08;;
16669;SDS011;8448;52.034;5.158;2023-05-19T10:20:05;4.15;;;1.98;;
16669;SDS011;8448;52.034;5.158;2023-05-19T10:22:35;6.82;;;2.75;;
16669;SDS011;8448;52.034;5.158;2023-05-19T10:25:03;6.15;;;2.55;;
16669;SDS011;8448;52.034;5.158;2023-05-19T10:27:32;5.32;;;2.40;;
16669;SDS011;8448;52.034;5.158;2023-05-19T10:30:04;8.13;;;2.42;;
16669;SDS011;8448;52.034;5.158;2023-05-19T10:32:35;6.70;;;2.60;;
16669;SDS011;8448;52.034;5.158;2023-05-19T10:35:15;6.03;;;2.15;;
16669;SDS011;8448;52.034;5.158;2023-05-19T10:37:52;6.50;;;2.67;;
16669;SDS011;8448;52.034;5.158;2023-05-19T10:40:25;4.05;;;2.10;;
16669;SDS011;8448;52.034;5.158;2023-05-19T10:43:04;5.20;;;2.45;;
16669;SDS011;8448;52.034;5.158;2023-05-19T10:45:39;4.13;;;2.22;;
16669;SDS011;8448;52.034;5.158;2023-05-19T10:48:10;5.18;;;2.75;;
16669;SDS011;8448;52.034;5.158;2023-05-19T10:50:38;5.28;;;2.65;;
16669;SDS011;8448;52.034;5.158;2023-05-19T10:53:06;10.30;;;2.90;;
16669;SDS011;8448;52.034;5.158;2023-05-19T10:55:45;5.20;;;2.50;;
16669;SDS011;8448;52.034;5.158;2023-05-19T10:58:47;4.65;;;2.60;;
16669;SDS011;8448;52.034;5.158;2023-05-19T11:01:17;7.43;;;2.65;;
16669;SDS011;8448;52.034;5.158;2023-05-19T11:03:45;4.13;;;2.45;;
16669;SDS011;8448;52.034;5.158;2023-05-19T11:06:17;4.65;;;2.50;;
16669;SDS011;8448;52.034;5.158;2023-05-19T11:08:45;4.93;;;2.47;;
16669;SDS011;8448;52.034;5.158;2023-05-19T11:11:13;4.72;;;2.20;;
16669;SDS011;8448;52.034;5.158;2023-05-19T11:13:43;5.88;;;2.85;;
16669;SDS011;8448;52.034;5.158;2023-05-19T11:16:13;7.25;;;2.95;;
16669;SDS011;8448;52.034;5.158;2023-05-19T11:18:40;5.43;;;2.58;;
16669;SDS011;8448;52.034;5.158;2023-05-19T11:21:08;4.40;;;2.10;;
16669;SDS011;8448;52.034;5.158;2023-05-19T11:23:36;4.72;;;2.50;;
16669;SDS011;8448;52.034;5.158;2023-05-19T11:26:05;6.35;;;2.50;;
16669;SDS011;8448;52.034;5.158;2023-05-19T11:28:33;3.88;;;2.30;;
16669;SDS011;8448;52.034;5.158;2023-05-19T11:31:03;3.90;;;2.50;;
16669;SDS011;8448;52.034;5.158;2023-05-19T11:33:33;5.22;;;2.47;;
16669;SDS011;8448;52.034;5.158;2023-05-19T11:36:00;7.32;;;2.60;;
16669;SDS011;8448;52.034;5.158;2023-05-19T11:38:28;5.65;;;2.10;;
16669;SDS011;8448;52.034;5.158;2023-05-19T11:40:56;6.40;;;2.42;;
16669;SDS011;8448;52.034;5.158;2023-05-19T11:43:23;5.93;;;2.55;;
16669;SDS011;8448;52.034;5.158;2023-05-19T11:45:52;7.18;;;2.88;;
16669;SDS011;8448;52.034;5.158;2023-05-19T11:48:22;4.80;;;2.67;;
16669;SDS011;8448;52.034;5.158;2023-05-19T11:50:50;5.13;;;2.60;;
16669;SDS011;8448;52.034;5.158;2023-05-19T11:53:18;4.05;;;2.22;;
16669;SDS011;8448;52.034;5.158;2023-05-19T11:55:46;5.40;;;2.60;;
16669;SDS011;8448;52.034;5.158;2023-05-19T11:58:13;4.22;;;2.45;;
16669;SDS011;8448;52.034;5.158;2023-05-19T12:00:41;5.43;;;2.67;;
16669;SDS011;8448;52.034;5.158;2023-05-19T12:03:10;5.60;;;2.30;;
16669;SDS011;8448;52.034;5.158;2023-05-19T12:05:41;6.82;;;2.55;;
16669;SDS011;8448;52.034;5.158;2023-05-19T12:08:09;4.43;;;2.55;;
16669;SDS011;8448;52.034;5.158;2023-05-19T12:10:37;5.75;;;2.60;;
16669;SDS011;8448;52.034;5.158;2023-05-19T12:13:05;5.20;;;2.50;;
16669;SDS011;8448;52.034;5.158;2023-05-19T12:15:33;4.35;;;2.42;;
16669;SDS011;8448;52.034;5.158;2023-05-19T12:18:00;4.18;;;2.30;;
16669;SDS011;8448;52.034;5.158;2023-05-19T12:20:28;5.38;;;2.40;;
16669;SDS011;8448;52.034;5.158;2023-05-19T12:22:58;5.90;;;2.17;;
16669;SDS011;8448;52.034;5.158;2023-05-19T12:25:26;5.53;;;2.42;;
16669;SDS011;8448;52.034;5.158;2023-05-19T12:27:56;5.85;;;2.60;;
16669;SDS011;8448;52.034;5.158;2023-05-19T12:30:24;4.03;;;2.08;;
16669;SDS011;8448;52.034;5.158;2023-05-19T12:32:53;5.03;;;2.20;;
16669;SDS011;8448;52.034;5.158;2023-05-19T12:35:24;3.22;;;2.17;;
16669;SDS011;8448;52.034;5.158;2023-05-19T12:37:52;5.35;;;2.15;;
16669;SDS011;8448;52.034;5.158;2023-05-19T12:40:21;4.72;;;2.50;;
16669;SDS011;8448;52.034;5.158;2023-05-19T12:42:50;4.20;;;2.28;;
16669;SDS011;8448;52.034;5.158;2023-05-19T12:45:22;5.60;;;2.25;;
16669;SDS011;8448;52.034;5.158;2023-05-19T12:47:51;5.18;;;2.40;;
16669;SDS011;8448;52.034;5.158;2023-05-19T12:50:19;5.60;;;2.50;;
16669;SDS011;8448;52.034;5.158;2023-05-19T12:52:47;4.90;;;2.15;;
16669;SDS011;8448;52.034;5.158;2023-05-19T12:55:16;4.88;;;2.40;;
16669;SDS011;8448;52.034;5.158;2023-05-19T12:57:48;5.97;;;2.50;;
16669;SDS011;8448;52.034;5.158;2023-05-19T13:00:19;4.85;;;2.45;;
16669;SDS011;8448;52.034;5.158;2023-05-19T13:02:56;4.88;;;2.30;;
16669;SDS011;8448;52.034;5.158;2023-05-19T13:05:25;3.45;;;2.03;;
16669;SDS011;8448;52.034;5.158;2023-05-19T13:07:53;4.50;;;2.25;;
16669;SDS011;8448;52.034;5.158;2023-05-19T13:10:21;5.03;;;2.05;;
16669;SDS011;8448;52.034;5.158;2023-05-19T13:12:52;4.03;;;2.15;;
16669;SDS011;8448;52.034;5.158;2023-05-19T13:15:21;6.15;;;2.47;;
16669;SDS011;8448;52.034;5.158;2023-05-19T13:17:50;5.15;;;2.80;;
16669;SDS011;8448;52.034;5.158;2023-05-19T13:20:18;4.72;;;2.58;;
16669;SDS011;8448;52.034;5.158;2023-05-19T13:22:45;8.48;;;3.20;;
16669;SDS011;8448;52.034;5.158;2023-05-19T13:25:13;7.45;;;2.88;;
16669;SDS011;8448;52.034;5.158;2023-05-19T13:27:40;6.22;;;3.25;;
16669;SDS011;8448;52.034;5.158;2023-05-19T13:30:10;5.05;;;3.00;;
16669;SDS011;8448;52.034;5.158;2023-05-19T13:32:37;6.43;;;2.75;;
16669;SDS011;8448;52.034;5.158;2023-05-19T13:35:05;8.40;;;3.13;;
16669;SDS011;8448;52.034;5.158;2023-05-19T13:37:34;6.55;;;3.05;;
16669;SDS011;8448;52.034;5.158;2023-05-19T13:40:01;5.32;;;2.75;;
16669;SDS011;8448;52.034;5.158;2023-05-19T13:42:29;7.72;;;3.47;;
16669;SDS011;8448;52.034;5.158;2023-05-19T13:44:57;5.68;;;3.08;;
16669;SDS011;8448;52.034;5.158;2023-05-19T13:47:26;8.32;;;3.30;;
16669;SDS011;8448;52.034;5.158;2023-05-19T13:49:54;8.75;;;3.28;;
16669;SDS011;8448;52.034;5.158;2023-05-19T13:52:21;4.15;;;2.72;;
16669;SDS011;8448;52.034;5.158;2023-05-19T13:54:49;5.70;;;3.00;;
16669;SDS011;8448;52.034;5.158;2023-05-19T13:57:18;5.00;;;2.97;;
16669;SDS011;8448;52.034;5.158;2023-05-19T13:59:46;5.95;;;2.97;;
16669;SDS011;8448;52.034;5.158;2023-05-19T14:02:13;4.88;;;2.90;;
16669;SDS011;8448;52.034;5.158;2023-05-19T14:04:42;4.40;;;2.45;;
16669;SDS011;8448;52.034;5.158;2023-05-19T14:07:10;7.85;;;3.08;;
16669;SDS011;8448;52.034;5.158;2023-05-19T14:09:38;5.15;;;2.92;;
16669;SDS011;8448;52.034;5.158;2023-05-19T14:12:05;6.07;;;2.80;;
16669;SDS011;8448;52.034;5.158;2023-05-19T14:14:36;6.22;;;2.70;;
16669;SDS011;8448;52.034;5.158;2023-05-19T14:17:03;5.88;;;2.72;;
16669;SDS011;8448;52.034;5.158;2023-05-19T14:19:30;6.60;;;2.70;;
16669;SDS011;8448;52.034;5.158;2023-05-19T14:21:59;4.20;;;2.60;;
16669;SDS011;8448;52.034;5.158;2023-05-19T14:24:26;4.75;;;2.78;;
16669;SDS011;8448;52.034;5.158;2023-05-19T14:26:54;5.45;;;3.00;;
16669;SDS011;8448;52.034;5.158;2023-05-19T14:29:21;8.90;;;3.03;;
16669;SDS011;8448;52.034;5.158;2023-05-19T14:31:48;5.80;;;2.85;;
16669;SDS011;8448;52.034;5.158;2023-05-19T14:34:15;5.28;;;2.65;;
16669;SDS011;8448;52.034;5.158;2023-05-19T14:36:45;6.43;;;2.50;;
16669;SDS011;8448;52.034;5.158;2023-05-19T14:39:14;5.40;;;2.50;;
16669;SDS011;8448;52.034;5.158;2023-05-19T14:41:41;4.47;;;2.50;;
16669;SDS011;8448;52.034;5.158;2023-05-19T14:44:08;4.72;;;2.80;;
16669;SDS011;8448;52.034;5.158;2023-05-19T14:46:35;4.95;;;2.70;;
16669;SDS011;8448;52.034;5.158;2023-05-19T14:49:03;4.47;;;2.65;;
16669;SDS011;8448;52.034;5.158;2023-05-19T14:51:31;5.40;;;2.70;;
16669;SDS011;8448;52.034;5.158;2023-05-19T14:53:58;6.40;;;2.50;;
16669;SDS011;8448;52.034;5.158;2023-05-19T14:56:27;6.35;;;2.55;;
16669;SDS011;8448;52.034;5.158;2023-05-19T14:58:54;4.07;;;2.47;;
16669;SDS011;8448;52.034;5.158;2023-05-19T15:01:22;6.28;;;2.80;;
16669;SDS011;8448;52.034;5.158;2023-05-19T15:03:50;5.55;;;2.80;;
16669;SDS011;8448;52.034;5.158;2023-05-19T15:06:17;4.82;;;2.55;;
16669;SDS011;8448;52.034;5.158;2023-05-19T15:08:44;5.22;;;2.90;;
16669;SDS011;8448;52.034;5.158;2023-05-19T15:11:12;6.07;;;2.70;;
16669;SDS011;8448;52.034;5.158;2023-05-19T15:13:40;6.85;;;2.78;;
16669;SDS011;8448;52.034;5.158;2023-05-19T15:16:08;7.28;;;2.53;;